sensor_id;sensor_type;location;lat;lon;timestamp;temperature;humidity
6018;DHT22;3037;51.068;13.780;2023-07-08T00:00:28;17.20;1.00
6018;DHT22;3037;51.068;13.780;2023-07-08T00:02:54;17.10;1.00
6018;DHT22;3037;51.068;13.780;2023-07-08T00:05:21;17.10;1.00
6018;DHT22;3037;51.068;13.780;2023-07-08T00:07:47;17.10;1.00
6018;DHT22;3037;51.068;13.780;2023-07-08T00:10:21;17.10;1.00
6018;DHT22;3037;51.068;13.780;2023-07-08T00:12:50;17.10;1.00
6018;DHT22;3037;51.068;13.780;2023-07-08T00:15:16;17.10;1.00
6018;DHT22;3037;51.068;13.780;2023-07-08T00:17:42;17.10;1.00
6018;DHT22;3037;51.068;13.780;2023-07-08T00:20:17;17.10;1.00
6018;DHT22;3037;51.068;13.780;2023-07-08T00:22:44;17.20;1.00
6018;DHT22;3037;51.068;13.780;2023-07-08T00:25:13;17.10;1.00
6018;DHT22;3037;51.068;13.780;2023-07-08T00:27:39;17.10;1.00
6018;DHT22;3037;51.068;13.780;2023-07-08T00:30:26;17.10;1.00
6018;DHT22;3037;51.068;13.780;2023-07-08T00:32:52;17.00;1.00
6018;DHT22;3037;51.068;13.780;2023-07-08T00:37:48;16.90;1.00
6018;DHT22;3037;51.068;13.780;2023-07-08T00:40:17;16.80;10.90
6018;DHT22;3037;51.068;13.780;2023-07-08T00:42:44;16.80;19.10
6018;DHT22;3037;51.068;13.780;2023-07-08T00:45:27;16.70;92.20
6018;DHT22;3037;51.068;13.780;2023-07-08T00:47:56;16.70;99.90
6018;DHT22;3037;51.068;13.780;2023-07-08T00:50:24;16.70;99.90
6018;DHT22;3037;51.068;13.780;2023-07-08T00:52:50;16.70;99.90
6018;DHT22;3037;51.068;13.780;2023-07-08T00:55:15;16.60;99.90
6018;DHT22;3037;51.068;13.780;2023-07-08T00:57:43;16.50;99.90
6018;DHT22;3037;51.068;13.780;2023-07-08T01:00:14;16.40;99.90
6018;DHT22;3037;51.068;13.780;2023-07-08T01:02:52;16.40;1.00
6018;DHT22;3037;51.068;13.780;2023-07-08T01:05:24;16.30;99.90
6018;DHT22;3037;51.068;13.780;2023-07-08T01:07:59;16.30;99.90
6018;DHT22;3037;51.068;13.780;2023-07-08T01:10:36;16.20;1.00
6018;DHT22;3037;51.068;13.780;2023-07-08T01:13:06;16.20;1.00
6018;DHT22;3037;51.068;13.780;2023-07-08T01:15:41;16.20;1.00
6018;DHT22;3037;51.068;13.780;2023-07-08T01:18:09;16.20;1.00
6018;DHT22;3037;51.068;13.780;2023-07-08T01:20:35;16.20;99.90
6018;DHT22;3037;51.068;13.780;2023-07-08T01:23:00;16.10;99.90
6018;DHT22;3037;51.068;13.780;2023-07-08T01:25:26;16.20;1.00
6018;DHT22;3037;51.068;13.780;2023-07-08T01:27:54;16.10;1.00
6018;DHT22;3037;51.068;13.780;2023-07-08T01:30:21;16.10;99.90
6018;DHT22;3037;51.068;13.780;2023-07-08T01:32:57;16.10;99.90
6018;DHT22;3037;51.068;13.780;2023-07-08T01:35:24;16.10;1.00
6018;DHT22;3037;51.068;13.780;2023-07-08T01:37:57;16.10;99.90
6018;DHT22;3037;51.068;13.780;2023-07-08T01:40:26;16.10;99.90
6018;DHT22;3037;51.068;13.780;2023-07-08T01:42:53;16.00;99.90
6018;DHT22;3037;51.068;13.780;2023-07-08T01:45:21;16.00;1.00
6018;DHT22;3037;51.068;13.780;2023-07-08T01:47:53;15.90;1.00
6018;DHT22;3037;51.068;13.780;2023-07-08T01:50:20;15.90;1.00
6018;DHT22;3037;51.068;13.780;2023-07-08T01:52:48;15.90;1.00
6018;DHT22;3037;51.068;13.780;2023-07-08T01:55:15;15.80;1.00
6018;DHT22;3037;51.068;13.780;2023-07-08T01:57:41;15.90;1.00
6018;DHT22;3037;51.068;13.780;2023-07-08T02:00:07;15.80;1.00
6018;DHT22;3037;51.068;13.780;2023-07-08T02:02:33;15.90;29.50
6018;DHT22;3037;51.068;13.780;2023-07-08T02:04:59;15.80;2.00
6018;DHT22;3037;51.068;13.780;2023-07-08T02:07:24;15.80;99.90
6018;DHT22;3037;51.068;13.780;2023-07-08T02:09:50;15.90;99.90
6018;DHT22;3037;51.068;13.780;2023-07-08T02:12:15;15.80;1.00
6018;DHT22;3037;51.068;13.780;2023-07-08T02:14:41;15.90;99.90
6018;DHT22;3037;51.068;13.780;2023-07-08T02:17:06;15.90;1.00
6018;DHT22;3037;51.068;13.780;2023-07-08T02:19:32;15.90;1.00
6018;DHT22;3037;51.068;13.780;2023-07-08T02:21:57;15.80;1.00
6018;DHT22;3037;51.068;13.780;2023-07-08T02:24:23;15.80;99.90
6018;DHT22;3037;51.068;13.780;2023-07-08T02:26:49;15.80;1.00
6018;DHT22;3037;51.068;13.780;2023-07-08T02:29:14;15.80;99.90
6018;DHT22;3037;51.068;13.780;2023-07-08T02:31:40;15.80;1.00
6018;DHT22;3037;51.068;13.780;2023-07-08T02:34:05;15.80;99.90
6018;DHT22;3037;51.068;13.780;2023-07-08T02:36:32;15.70;1.00
6018;DHT22;3037;51.068;13.780;2023-07-08T02:38:59;15.70;89.90
6018;DHT22;3037;51.068;13.780;2023-07-08T02:41:24;15.70;99.90
6018;DHT22;3037;51.068;13.780;2023-07-08T02:43:50;15.70;59.20
6018;DHT22;3037;51.068;13.780;2023-07-08T02:46:15;15.70;99.90
6018;DHT22;3037;51.068;13.780;2023-07-08T02:48:41;15.60;1.00
6018;DHT22;3037;51.068;13.780;2023-07-08T02:51:06;15.70;99.90
6018;DHT22;3037;51.068;13.780;2023-07-08T02:53:34;15.60;1.00
6018;DHT22;3037;51.068;13.780;2023-07-08T02:55:59;15.60;1.00
6018;DHT22;3037;51.068;13.780;2023-07-08T02:58:25;15.60;99.90
6018;DHT22;3037;51.068;13.780;2023-07-08T03:04:13;15.50;1.00
6018;DHT22;3037;51.068;13.780;2023-07-08T03:06:40;15.50;99.90
6018;DHT22;3037;51.068;13.780;2023-07-08T03:09:06;15.50;22.20
6018;DHT22;3037;51.068;13.780;2023-07-08T03:11:32;15.50;1.00
6018;DHT22;3037;51.068;13.780;2023-07-08T03:13:57;15.50;1.00
6018;DHT22;3037;51.068;13.780;2023-07-08T03:16:23;15.50;99.90
6018;DHT22;3037;51.068;13.780;2023-07-08T03:18:48;15.60;1.00
6018;DHT22;3037;51.068;13.780;2023-07-08T03:21:16;15.60;1.00
6018;DHT22;3037;51.068;13.780;2023-07-08T03:23:42;15.60;1.00
6018;DHT22;3037;51.068;13.780;2023-07-08T03:26:13;15.50;1.00
6018;DHT22;3037;51.068;13.780;2023-07-08T03:28:40;15.50;99.90
6018;DHT22;3037;51.068;13.780;2023-07-08T03:31:09;15.60;1.00
6018;DHT22;3037;51.068;13.780;2023-07-08T03:33:35;15.60;1.00
6018;DHT22;3037;51.068;13.780;2023-07-08T03:36:01;15.60;1.00
6018;DHT22;3037;51.068;13.780;2023-07-08T03:38:27;15.60;1.00
6018;DHT22;3037;51.068;13.780;2023-07-08T03:40:53;15.60;1.00
6018;DHT22;3037;51.068;13.780;2023-07-08T03:43:18;15.60;7.40
6018;DHT22;3037;51.068;13.780;2023-07-08T03:45:44;15.70;1.00
6018;DHT22;3037;51.068;13.780;2023-07-08T03:48:13;15.70;88.30
6018;DHT22;3037;51.068;13.780;2023-07-08T03:50:39;15.80;99.90
6018;DHT22;3037;51.068;13.780;2023-07-08T03:53:04;15.90;1.00
6018;DHT22;3037;51.068;13.780;2023-07-08T03:55:30;15.90;1.00
6018;DHT22;3037;51.068;13.780;2023-07-08T03:57:55;15.90;1.00
6018;DHT22;3037;51.068;13.780;2023-07-08T04:00:21;16.00;99.90
6018;DHT22;3037;51.068;13.780;2023-07-08T04:02:47;15.90;1.00
6018;DHT22;3037;51.068;13.780;2023-07-08T04:05:21;16.00;1.00
6018;DHT22;3037;51.068;13.780;2023-07-08T04:07:47;16.10;99.90
6018;DHT22;3037;51.068;13.780;2023-07-08T04:10:13;16.10;99.90
6018;DHT22;3037;51.068;13.780;2023-07-08T04:12:39;16.20;99.90
6018;DHT22;3037;51.068;13.780;2023-07-08T04:15:07;16.30;99.90
6018;DHT22;3037;51.068;13.780;2023-07-08T04:17:32;16.30;1.00
6018;DHT22;3037;51.068;13.780;2023-07-08T04:19:58;16.30;1.00
6018;DHT22;3037;51.068;13.780;2023-07-08T04:22:31;16.40;1.00
6018;DHT22;3037;51.068;13.780;2023-07-08T04:24:56;16.50;99.90
6018;DHT22;3037;51.068;13.780;2023-07-08T04:27:22;16.50;1.00
6018;DHT22;3037;51.068;13.780;2023-07-08T04:29:48;16.70;99.90
6018;DHT22;3037;51.068;13.780;2023-07-08T04:32:14;16.70;1.00
6018;DHT22;3037;51.068;13.780;2023-07-08T04:34:39;16.80;1.00
6018;DHT22;3037;51.068;13.780;2023-07-08T04:37:05;16.90;1.00
6018;DHT22;3037;51.068;13.780;2023-07-08T04:39:31;17.00;95.00
6018;DHT22;3037;51.068;13.780;2023-07-08T04:41:56;17.00;95.70
6018;DHT22;3037;51.068;13.780;2023-07-08T04:44:22;17.20;94.10
6018;DHT22;3037;51.068;13.780;2023-07-08T04:46:52;17.30;92.70
6018;DHT22;3037;51.068;13.780;2023-07-08T04:49:19;17.30;92.40
6018;DHT22;3037;51.068;13.780;2023-07-08T04:51:45;17.50;92.00
6018;DHT22;3037;51.068;13.780;2023-07-08T04:54:11;17.50;91.40
6018;DHT22;3037;51.068;13.780;2023-07-08T04:56:45;17.50;91.30
6018;DHT22;3037;51.068;13.780;2023-07-08T04:59:16;17.60;90.60
6018;DHT22;3037;51.068;13.780;2023-07-08T05:01:42;17.70;88.40
6018;DHT22;3037;51.068;13.780;2023-07-08T05:04:10;18.00;84.10
6018;DHT22;3037;51.068;13.780;2023-07-08T05:06:36;18.10;81.70
6018;DHT22;3037;51.068;13.780;2023-07-08T05:09:03;18.20;81.00
6018;DHT22;3037;51.068;13.780;2023-07-08T05:11:29;18.40;78.30
6018;DHT22;3037;51.068;13.780;2023-07-08T05:13:54;18.70;72.90
6018;DHT22;3037;51.068;13.780;2023-07-08T05:16:20;18.80;70.20
6018;DHT22;3037;51.068;13.780;2023-07-08T05:18:46;19.10;65.40
6018;DHT22;3037;51.068;13.780;2023-07-08T05:21:12;19.30;60.40
6018;DHT22;3037;51.068;13.780;2023-07-08T05:23:38;19.40;58.20
6018;DHT22;3037;51.068;13.780;2023-07-08T05:26:05;19.50;54.80
6018;DHT22;3037;51.068;13.780;2023-07-08T05:28:31;19.70;51.90
6018;DHT22;3037;51.068;13.780;2023-07-08T05:30:56;19.80;49.00
6018;DHT22;3037;51.068;13.780;2023-07-08T05:33:26;20.00;44.70
6018;DHT22;3037;51.068;13.780;2023-07-08T05:35:52;20.30;39.10
6018;DHT22;3037;51.068;13.780;2023-07-08T05:38:18;20.50;33.40
6018;DHT22;3037;51.068;13.780;2023-07-08T05:40:53;20.80;28.50
6018;DHT22;3037;51.068;13.780;2023-07-08T05:43:20;21.10;24.10
6018;DHT22;3037;51.068;13.780;2023-07-08T05:45:46;21.30;19.40
6018;DHT22;3037;51.068;13.780;2023-07-08T05:48:11;21.50;14.00
6018;DHT22;3037;51.068;13.780;2023-07-08T05:50:37;21.60;13.10
6018;DHT22;3037;51.068;13.780;2023-07-08T05:53:03;21.80;10.60
6018;DHT22;3037;51.068;13.780;2023-07-08T05:55:29;22.60;4.70
6018;DHT22;3037;51.068;13.780;2023-07-08T05:57:54;25.20;1.00
6018;DHT22;3037;51.068;13.780;2023-07-08T06:00:20;26.60;1.00
6018;DHT22;3037;51.068;13.780;2023-07-08T06:02:45;27.70;1.00
6018;DHT22;3037;51.068;13.780;2023-07-08T06:05:11;28.10;1.00
6018;DHT22;3037;51.068;13.780;2023-07-08T06:07:36;28.90;1.00
6018;DHT22;3037;51.068;13.780;2023-07-08T06:10:02;29.30;1.00
6018;DHT22;3037;51.068;13.780;2023-07-08T06:12:27;29.50;1.00
6018;DHT22;3037;51.068;13.780;2023-07-08T06:14:53;30.30;1.00
6018;DHT22;3037;51.068;13.780;2023-07-08T06:17:18;30.40;1.00
6018;DHT22;3037;51.068;13.780;2023-07-08T06:19:44;31.70;1.00
6018;DHT22;3037;51.068;13.780;2023-07-08T06:22:09;31.10;1.00
6018;DHT22;3037;51.068;13.780;2023-07-08T06:24:35;31.10;1.00
6018;DHT22;3037;51.068;13.780;2023-07-08T06:27:01;31.50;1.00
6018;DHT22;3037;51.068;13.780;2023-07-08T06:29:26;30.90;1.00
6018;DHT22;3037;51.068;13.780;2023-07-08T06:31:52;30.80;1.00
6018;DHT22;3037;51.068;13.780;2023-07-08T06:34:18;32.50;1.00
6018;DHT22;3037;51.068;13.780;2023-07-08T06:36:44;32.30;1.00
6018;DHT22;3037;51.068;13.780;2023-07-08T06:39:10;32.40;1.00
6018;DHT22;3037;51.068;13.780;2023-07-08T06:41:37;32.60;1.00
6018;DHT22;3037;51.068;13.780;2023-07-08T06:44:03;32.30;1.00
6018;DHT22;3037;51.068;13.780;2023-07-08T06:46:29;32.90;1.00
6018;DHT22;3037;51.068;13.780;2023-07-08T06:48:54;33.50;1.00
6018;DHT22;3037;51.068;13.780;2023-07-08T06:51:20;33.80;1.00
6018;DHT22;3037;51.068;13.780;2023-07-08T06:53:46;33.90;1.00
6018;DHT22;3037;51.068;13.780;2023-07-08T06:56:11;35.00;1.00
6018;DHT22;3037;51.068;13.780;2023-07-08T06:58:37;34.20;1.00
6018;DHT22;3037;51.068;13.780;2023-07-08T07:01:02;34.50;1.00
6018;DHT22;3037;51.068;13.780;2023-07-08T07:03:28;35.30;1.00
6018;DHT22;3037;51.068;13.780;2023-07-08T07:05:53;35.40;1.00
6018;DHT22;3037;51.068;13.780;2023-07-08T07:08:19;34.20;1.00
6018;DHT22;3037;51.068;13.780;2023-07-08T07:10:44;34.30;1.00
6018;DHT22;3037;51.068;13.780;2023-07-08T07:13:10;35.10;1.00
6018;DHT22;3037;51.068;13.780;2023-07-08T07:15:35;34.70;1.00
6018;DHT22;3037;51.068;13.780;2023-07-08T07:18:00;34.70;1.00
6018;DHT22;3037;51.068;13.780;2023-07-08T07:20:26;35.70;1.00
6018;DHT22;3037;51.068;13.780;2023-07-08T07:22:52;36.20;1.00
6018;DHT22;3037;51.068;13.780;2023-07-08T07:25:18;35.50;1.00
6018;DHT22;3037;51.068;13.780;2023-07-08T07:27:43;36.30;1.00
6018;DHT22;3037;51.068;13.780;2023-07-08T07:30:09;36.10;1.00
6018;DHT22;3037;51.068;13.780;2023-07-08T07:32:40;36.10;1.00
6018;DHT22;3037;51.068;13.780;2023-07-08T07:35:06;36.60;1.00
6018;DHT22;3037;51.068;13.780;2023-07-08T07:37:32;37.90;1.00
6018;DHT22;3037;51.068;13.780;2023-07-08T07:39:57;37.80;1.00
6018;DHT22;3037;51.068;13.780;2023-07-08T07:42:23;37.10;1.00
6018;DHT22;3037;51.068;13.780;2023-07-08T07:44:51;37.50;1.00
6018;DHT22;3037;51.068;13.780;2023-07-08T07:47:17;38.10;1.00
6018;DHT22;3037;51.068;13.780;2023-07-08T07:49:42;38.90;1.00
6018;DHT22;3037;51.068;13.780;2023-07-08T07:52:08;40.00;1.00
6018;DHT22;3037;51.068;13.780;2023-07-08T07:54:36;39.10;1.00
6018;DHT22;3037;51.068;13.780;2023-07-08T07:57:02;38.70;1.00
6018;DHT22;3037;51.068;13.780;2023-07-08T07:59:27;37.90;1.00
6018;DHT22;3037;51.068;13.780;2023-07-08T08:01:53;37.70;1.00
6018;DHT22;3037;51.068;13.780;2023-07-08T08:04:18;36.30;1.00
6018;DHT22;3037;51.068;13.780;2023-07-08T08:06:44;37.30;1.00
6018;DHT22;3037;51.068;13.780;2023-07-08T08:09:09;37.80;1.00
6018;DHT22;3037;51.068;13.780;2023-07-08T08:11:35;36.60;1.00
6018;DHT22;3037;51.068;13.780;2023-07-08T08:14:00;37.00;1.00
6018;DHT22;3037;51.068;13.780;2023-07-08T08:16:26;36.90;1.00
6018;DHT22;3037;51.068;13.780;2023-07-08T08:18:52;37.00;1.00
6018;DHT22;3037;51.068;13.780;2023-07-08T08:21:17;36.40;1.00
6018;DHT22;3037;51.068;13.780;2023-07-08T08:23:43;36.80;1.00
6018;DHT22;3037;51.068;13.780;2023-07-08T08:26:08;37.10;1.00
6018;DHT22;3037;51.068;13.780;2023-07-08T08:28:34;36.90;1.00
6018;DHT22;3037;51.068;13.780;2023-07-08T08:31:00;36.50;1.00
6018;DHT22;3037;51.068;13.780;2023-07-08T08:33:25;36.20;1.00
6018;DHT22;3037;51.068;13.780;2023-07-08T08:35:51;35.90;1.00
6018;DHT22;3037;51.068;13.780;2023-07-08T08:38:16;37.00;1.00
6018;DHT22;3037;51.068;13.780;2023-07-08T08:40:43;36.90;1.00
6018;DHT22;3037;51.068;13.780;2023-07-08T08:43:24;36.90;1.00
6018;DHT22;3037;51.068;13.780;2023-07-08T08:46:08;37.80;1.00
6018;DHT22;3037;51.068;13.780;2023-07-08T08:48:41;38.70;1.00
6018;DHT22;3037;51.068;13.780;2023-07-08T08:51:14;38.40;1.00
6018;DHT22;3037;51.068;13.780;2023-07-08T08:53:40;38.60;1.00
6018;DHT22;3037;51.068;13.780;2023-07-08T08:56:25;38.90;1.00
6018;DHT22;3037;51.068;13.780;2023-07-08T08:59:06;37.60;1.00
6018;DHT22;3037;51.068;13.780;2023-07-08T09:01:32;38.10;1.00
6018;DHT22;3037;51.068;13.780;2023-07-08T09:04:07;38.90;1.00
6018;DHT22;3037;51.068;13.780;2023-07-08T09:10:04;38.40;1.00
6018;DHT22;3037;51.068;13.780;2023-07-08T09:12:34;38.90;1.00
6018;DHT22;3037;51.068;13.780;2023-07-08T09:15:07;38.10;1.00
6018;DHT22;3037;51.068;13.780;2023-07-08T09:20:58;39.00;1.00
6018;DHT22;3037;51.068;13.780;2023-07-08T09:23:29;40.80;1.00
6018;DHT22;3037;51.068;13.780;2023-07-08T09:26:02;40.50;1.00
6018;DHT22;3037;51.068;13.780;2023-07-08T09:28:37;39.50;1.00
6018;DHT22;3037;51.068;13.780;2023-07-08T09:31:06;39.20;1.00
6018;DHT22;3037;51.068;13.780;2023-07-08T09:33:32;39.40;1.00
6018;DHT22;3037;51.068;13.780;2023-07-08T09:35:59;39.40;1.00
6018;DHT22;3037;51.068;13.780;2023-07-08T09:38:25;39.60;1.00
6018;DHT22;3037;51.068;13.780;2023-07-08T09:40:52;39.80;1.00
6018;DHT22;3037;51.068;13.780;2023-07-08T09:43:37;40.40;1.00
6018;DHT22;3037;51.068;13.780;2023-07-08T09:46:03;39.80;1.00
6018;DHT22;3037;51.068;13.780;2023-07-08T09:48:34;40.50;1.00
6018;DHT22;3037;51.068;13.780;2023-07-08T09:51:00;40.20;1.00
6018;DHT22;3037;51.068;13.780;2023-07-08T09:53:26;39.90;1.00
6018;DHT22;3037;51.068;13.780;2023-07-08T09:55:53;38.80;1.00
6018;DHT22;3037;51.068;13.780;2023-07-08T09:58:25;37.50;1.00
6018;DHT22;3037;51.068;13.780;2023-07-08T10:00:58;36.30;1.00
6018;DHT22;3037;51.068;13.780;2023-07-08T10:03:30;36.00;1.00
6018;DHT22;3037;51.068;13.780;2023-07-08T10:05:57;36.80;1.00
6018;DHT22;3037;51.068;13.780;2023-07-08T10:08:29;38.30;1.00
6018;DHT22;3037;51.068;13.780;2023-07-08T10:11:05;38.30;1.00
6018;DHT22;3037;51.068;13.780;2023-07-08T10:13:48;37.50;1.00
6018;DHT22;3037;51.068;13.780;2023-07-08T10:16:23;36.80;1.00
6018;DHT22;3037;51.068;13.780;2023-07-08T10:18:49;37.90;1.00
6018;DHT22;3037;51.068;13.780;2023-07-08T10:21:31;38.70;1.00
6018;DHT22;3037;51.068;13.780;2023-07-08T10:27:12;37.70;1.00
6018;DHT22;3037;51.068;13.780;2023-07-08T10:32:28;36.60;1.00
6018;DHT22;3037;51.068;13.780;2023-07-08T10:35:20;36.60;1.00
6018;DHT22;3037;51.068;13.780;2023-07-08T10:37:59;37.70;1.00
6018;DHT22;3037;51.068;13.780;2023-07-08T10:43:36;38.70;1.00
6018;DHT22;3037;51.068;13.780;2023-07-08T10:46:16;38.90;1.00
6018;DHT22;3037;51.068;13.780;2023-07-08T10:51:44;38.50;1.00
6018;DHT22;3037;51.068;13.780;2023-07-08T10:54:33;37.70;1.00
6018;DHT22;3037;51.068;13.780;2023-07-08T11:00:24;36.50;1.00
6018;DHT22;3037;51.068;13.780;2023-07-08T11:03:18;36.90;1.00
6018;DHT22;3037;51.068;13.780;2023-07-08T11:08:32;36.30;1.00
6018;DHT22;3037;51.068;13.780;2023-07-08T11:11:08;35.80;1.00
6018;DHT22;3037;51.068;13.780;2023-07-08T11:13:42;36.10;1.00
6018;DHT22;3037;51.068;13.780;2023-07-08T11:16:36;36.00;1.00
6018;DHT22;3037;51.068;13.780;2023-07-08T11:21:44;35.70;1.00
6018;DHT22;3037;51.068;13.780;2023-07-08T11:24:26;35.50;1.00
6018;DHT22;3037;51.068;13.780;2023-07-08T11:26:58;35.30;1.00
6018;DHT22;3037;51.068;13.780;2023-07-08T11:29:32;34.80;1.00
6018;DHT22;3037;51.068;13.780;2023-07-08T11:31:59;34.40;1.00
6018;DHT22;3037;51.068;13.780;2023-07-08T11:34:26;35.20;1.00
6018;DHT22;3037;51.068;13.780;2023-07-08T11:36:54;35.70;1.00
6018;DHT22;3037;51.068;13.780;2023-07-08T11:39:42;35.20;1.00
6018;DHT22;3037;51.068;13.780;2023-07-08T11:42:21;34.30;1.00
6018;DHT22;3037;51.068;13.780;2023-07-08T11:44:55;34.00;1.00
6018;DHT22;3037;51.068;13.780;2023-07-08T11:47:26;34.30;1.00
6018;DHT22;3037;51.068;13.780;2023-07-08T11:49:57;33.90;1.00
6018;DHT22;3037;51.068;13.780;2023-07-08T11:52:23;33.80;1.00
6018;DHT22;3037;51.068;13.780;2023-07-08T11:54:56;33.60;1.00
6018;DHT22;3037;51.068;13.780;2023-07-08T11:57:29;34.20;1.00
6018;DHT22;3037;51.068;13.780;2023-07-08T12:00:20;34.90;1.00
6018;DHT22;3037;51.068;13.780;2023-07-08T12:02:56;34.60;1.00
6018;DHT22;3037;51.068;13.780;2023-07-08T12:05:33;34.10;1.00
6018;DHT22;3037;51.068;13.780;2023-07-08T12:07:59;33.90;1.00
6018;DHT22;3037;51.068;13.780;2023-07-08T12:10:40;34.20;1.00
6018;DHT22;3037;51.068;13.780;2023-07-08T12:13:13;34.70;1.00
6018;DHT22;3037;51.068;13.780;2023-07-08T12:15:39;34.90;1.00
6018;DHT22;3037;51.068;13.780;2023-07-08T12:18:16;35.00;1.00
6018;DHT22;3037;51.068;13.780;2023-07-08T12:20:53;34.70;1.00
6018;DHT22;3037;51.068;13.780;2023-07-08T12:23:21;34.60;1.00
6018;DHT22;3037;51.068;13.780;2023-07-08T12:25:48;34.20;1.00
6018;DHT22;3037;51.068;13.780;2023-07-08T12:28:14;34.00;1.00
6018;DHT22;3037;51.068;13.780;2023-07-08T12:30:42;33.30;1.00
6018;DHT22;3037;51.068;13.780;2023-07-08T12:35:45;34.10;1.00
6018;DHT22;3037;51.068;13.780;2023-07-08T12:38:28;33.80;1.00
6018;DHT22;3037;51.068;13.780;2023-07-08T12:40:59;33.80;1.00
6018;DHT22;3037;51.068;13.780;2023-07-08T12:43:25;34.00;1.00
6018;DHT22;3037;51.068;13.780;2023-07-08T12:45:50;33.80;1.00
6018;DHT22;3037;51.068;13.780;2023-07-08T12:48:16;33.40;1.00
6018;DHT22;3037;51.068;13.780;2023-07-08T12:50:42;33.50;1.00
6018;DHT22;3037;51.068;13.780;2023-07-08T12:53:07;33.70;1.00
6018;DHT22;3037;51.068;13.780;2023-07-08T12:55:38;34.00;1.00
6018;DHT22;3037;51.068;13.780;2023-07-08T12:58:04;34.30;1.00
6018;DHT22;3037;51.068;13.780;2023-07-08T13:00:34;34.80;1.00
6018;DHT22;3037;51.068;13.780;2023-07-08T13:03:17;35.10;1.00
6018;DHT22;3037;51.068;13.780;2023-07-08T13:05:44;35.00;1.00
6018;DHT22;3037;51.068;13.780;2023-07-08T13:08:15;34.00;1.00
6018;DHT22;3037;51.068;13.780;2023-07-08T13:10:41;34.50;1.00
6018;DHT22;3037;51.068;13.780;2023-07-08T13:13:12;34.10;1.00
6018;DHT22;3037;51.068;13.780;2023-07-08T13:15:40;34.00;1.00
6018;DHT22;3037;51.068;13.780;2023-07-08T13:18:19;34.20;1.00
6018;DHT22;3037;51.068;13.780;2023-07-08T13:20:54;34.20;1.00
6018;DHT22;3037;51.068;13.780;2023-07-08T13:23:21;34.30;1.00
6018;DHT22;3037;51.068;13.780;2023-07-08T13:25:51;34.20;1.00
6018;DHT22;3037;51.068;13.780;2023-07-08T13:28:27;34.20;1.00
6018;DHT22;3037;51.068;13.780;2023-07-08T13:30:56;34.90;1.00
6018;DHT22;3037;51.068;13.780;2023-07-08T13:33:22;35.00;1.00
6018;DHT22;3037;51.068;13.780;2023-07-08T13:35:50;35.00;1.00
6018;DHT22;3037;51.068;13.780;2023-07-08T13:38:21;34.90;1.00
6018;DHT22;3037;51.068;13.780;2023-07-08T13:40:54;34.40;1.00
6018;DHT22;3037;51.068;13.780;2023-07-08T13:43:25;34.30;1.00
6018;DHT22;3037;51.068;13.780;2023-07-08T13:45:51;34.00;1.00
6018;DHT22;3037;51.068;13.780;2023-07-08T13:48:23;33.80;1.00
6018;DHT22;3037;51.068;13.780;2023-07-08T13:51:14;34.20;1.00
6018;DHT22;3037;51.068;13.780;2023-07-08T13:53:47;34.30;1.00
6018;DHT22;3037;51.068;13.780;2023-07-08T13:56:23;34.50;1.00
6018;DHT22;3037;51.068;13.780;2023-07-08T13:58:51;34.30;1.00
6018;DHT22;3037;51.068;13.780;2023-07-08T14:01:22;34.50;1.00
6018;DHT22;3037;51.068;13.780;2023-07-08T14:03:48;34.30;1.00
6018;DHT22;3037;51.068;13.780;2023-07-08T14:06:22;34.30;1.00
6018;DHT22;3037;51.068;13.780;2023-07-08T14:08:48;33.80;1.00
6018;DHT22;3037;51.068;13.780;2023-07-08T14:11:14;33.50;1.00
6018;DHT22;3037;51.068;13.780;2023-07-08T14:13:40;33.20;1.00
6018;DHT22;3037;51.068;13.780;2023-07-08T14:16:24;33.50;1.00
6018;DHT22;3037;51.068;13.780;2023-07-08T14:18:51;33.80;1.00
6018;DHT22;3037;51.068;13.780;2023-07-08T14:21:17;34.00;1.00
6018;DHT22;3037;51.068;13.780;2023-07-08T14:23:43;34.00;1.00
6018;DHT22;3037;51.068;13.780;2023-07-08T14:26:12;33.90;1.00
6018;DHT22;3037;51.068;13.780;2023-07-08T14:28:38;33.80;1.00
6018;DHT22;3037;51.068;13.780;2023-07-08T14:31:12;33.00;1.00
6018;DHT22;3037;51.068;13.780;2023-07-08T14:33:39;33.20;1.00
6018;DHT22;3037;51.068;13.780;2023-07-08T14:36:10;33.10;1.00
6018;DHT22;3037;51.068;13.780;2023-07-08T14:38:36;33.00;1.00
6018;DHT22;3037;51.068;13.780;2023-07-08T14:41:01;32.60;1.00
6018;DHT22;3037;51.068;13.780;2023-07-08T14:43:28;33.00;1.00
6018;DHT22;3037;51.068;13.780;2023-07-08T14:45:56;32.80;1.00
6018;DHT22;3037;51.068;13.780;2023-07-08T14:48:24;32.70;1.00
6018;DHT22;3037;51.068;13.780;2023-07-08T14:50:50;33.10;1.00
6018;DHT22;3037;51.068;13.780;2023-07-08T14:53:16;33.60;1.00
6018;DHT22;3037;51.068;13.780;2023-07-08T14:55:44;33.90;1.00
6018;DHT22;3037;51.068;13.780;2023-07-08T14:58:24;33.80;1.00
6018;DHT22;3037;51.068;13.780;2023-07-08T15:00:51;33.40;1.00
6018;DHT22;3037;51.068;13.780;2023-07-08T15:03:17;32.90;1.00
6018;DHT22;3037;51.068;13.780;2023-07-08T15:08:17;32.70;1.00
6018;DHT22;3037;51.068;13.780;2023-07-08T15:10:49;32.50;1.00
6018;DHT22;3037;51.068;13.780;2023-07-08T15:13:16;32.20;1.00
6018;DHT22;3037;51.068;13.780;2023-07-08T15:15:43;32.20;1.00
6018;DHT22;3037;51.068;13.780;2023-07-08T15:18:14;32.10;1.00
6018;DHT22;3037;51.068;13.780;2023-07-08T15:20:40;32.10;1.00
6018;DHT22;3037;51.068;13.780;2023-07-08T15:23:06;31.90;1.00
6018;DHT22;3037;51.068;13.780;2023-07-08T15:25:32;31.80;1.00
6018;DHT22;3037;51.068;13.780;2023-07-08T15:27:59;31.70;1.00
6018;DHT22;3037;51.068;13.780;2023-07-08T15:30:28;31.60;1.00
6018;DHT22;3037;51.068;13.780;2023-07-08T15:32:54;31.40;1.00
6018;DHT22;3037;51.068;13.780;2023-07-08T15:35:25;31.60;1.00
6018;DHT22;3037;51.068;13.780;2023-07-08T15:37:51;31.80;1.00
6018;DHT22;3037;51.068;13.780;2023-07-08T15:40:18;31.70;1.00
6018;DHT22;3037;51.068;13.780;2023-07-08T15:42:46;31.60;1.00
6018;DHT22;3037;51.068;13.780;2023-07-08T15:45:24;31.70;1.00
6018;DHT22;3037;51.068;13.780;2023-07-08T15:47:51;31.80;1.00
6018;DHT22;3037;51.068;13.780;2023-07-08T15:50:19;31.90;1.00
6018;DHT22;3037;51.068;13.780;2023-07-08T15:52:44;32.20;1.00
6018;DHT22;3037;51.068;13.780;2023-07-08T15:55:12;32.30;1.00
6018;DHT22;3037;51.068;13.780;2023-07-08T15:57:47;32.40;1.00
6018;DHT22;3037;51.068;13.780;2023-07-08T16:00:24;32.60;1.00
6018;DHT22;3037;51.068;13.780;2023-07-08T16:02:53;32.70;1.00
6018;DHT22;3037;51.068;13.780;2023-07-08T16:05:19;32.20;1.00
6018;DHT22;3037;51.068;13.780;2023-07-08T16:07:46;31.90;1.00
6018;DHT22;3037;51.068;13.780;2023-07-08T16:10:13;31.60;1.00
6018;DHT22;3037;51.068;13.780;2023-07-08T16:12:38;31.60;1.00
6018;DHT22;3037;51.068;13.780;2023-07-08T16:15:05;31.60;1.00
6018;DHT22;3037;51.068;13.780;2023-07-08T16:17:33;31.40;1.00
6018;DHT22;3037;51.068;13.780;2023-07-08T16:20:01;31.00;1.00
6018;DHT22;3037;51.068;13.780;2023-07-08T16:22:27;30.90;1.00
6018;DHT22;3037;51.068;13.780;2023-07-08T16:24:53;30.80;1.00
6018;DHT22;3037;51.068;13.780;2023-07-08T16:27:18;30.90;1.00
6018;DHT22;3037;51.068;13.780;2023-07-08T16:29:44;30.90;1.00
6018;DHT22;3037;51.068;13.780;2023-07-08T16:32:11;30.90;1.00
6018;DHT22;3037;51.068;13.780;2023-07-08T16:34:38;30.70;1.00
6018;DHT22;3037;51.068;13.780;2023-07-08T16:37:03;30.70;1.00
6018;DHT22;3037;51.068;13.780;2023-07-08T16:39:29;30.70;1.00
6018;DHT22;3037;51.068;13.780;2023-07-08T16:41:54;31.00;1.00
6018;DHT22;3037;51.068;13.780;2023-07-08T16:44:20;31.10;1.00
6018;DHT22;3037;51.068;13.780;2023-07-08T16:46:45;31.20;1.00